• Join FlightAware (Why Join?)
  • Login
  • US Flag 
11:05AM EDT


 

Airport Tracker/Info


-or-


 

Live Flight TrackerFlight Track Log ✈ N240ER ✈ 16-Aug-2013 ✈ KMKE - KPTK

Flight Track Log - Related Links

Times and Time Zones

All times are in EDT time to prevent confusion due to time zone crossing. See the N240ER flight status page for this flight to view local times or setup timezone preferences in your user account.

Time Position Orientation Groundspeed Altitude Reporting Facility
EDT Latitude Longitude Course Direction KTS MPH feet Rate Location/Type
04:55PM 42.9333 -87.9000 124° Southeast 126 145 1,300  Level KMKE
04:56PM 42.9167 -87.8667 124° Southeast 113 130 2,500 1,440 Climbing KMKE
04:57PM 42.9197 -87.8328 83° East 128 147 3,700 1,320 Climbing Chicago Center
04:58PM 42.9194 -87.7825 90° East 130 150 5,100 1,380 Climbing Chicago Center
04:59PM 42.9189 -87.7317 91° East 134 154 6,600 1,440 Climbing Chicago Center
05:00PM 42.9175 -87.6639 92° East 150 173 8,200 1,440 Climbing Chicago Center
05:01PM 42.9189 -87.6067 88° East 152 175 9,600 1,320 Climbing Chicago Center
05:02PM 42.9219 -87.5492 86° East 152 175 11,000 1,320 Climbing Chicago Center
05:03PM 42.9253 -87.4903 86° East 156 180 12,400 1,320 Climbing Chicago Center
05:04PM 42.9194 -87.4303 98° East 160 184 13,800 1,260 Climbing Chicago Center
05:05PM 42.9158 -87.3653 94° East 162 186 15,100 1,200 Climbing Chicago Center
05:06PM 42.9117 -87.3033 95° East 163 188 16,400 1,140 Climbing Chicago Center
05:07PM 42.9075 -87.2389 95° East 169 194 17,500 900 Climbing Chicago Center
05:08PM 42.9033 -87.1703 95° East 180 207 18,300 720 Climbing Chicago Center
05:09PM 42.8972 -87.0778 95° East 203 234 19,000 300 Climbing Chicago Center
05:10PM 42.8917 -86.9900 95° East 230 265 19,000  Level Chicago Center
05:11PM 42.8853 -86.8964 95° East 247 284 19,000  Level Chicago Center
05:12PM 42.8789 -86.8028 95° East 250 288 19,000  Level Chicago Center
05:13PM 42.8728 -86.7106 95° East 247 284 19,000  Level Chicago Center
05:14PM 42.8653 -86.5981 95° East 249 287 19,000  Level Chicago Center
05:15PM 42.8586 -86.5053 96° East 249 287 19,000  Level Chicago Center
05:16PM 42.8519 -86.4122 96° East 248 285 19,000  Level Chicago Center
05:17PM 42.8450 -86.3181 96° East 250 288 19,000  Level Chicago Center
05:18PM 42.8392 -86.2242 95° East 251 289 19,000  Level Chicago Center
05:19PM 42.8297 -86.1131 97° East 250 288 19,000  Level Chicago Center
05:20PM 42.8233 -86.0194 95° East 251 289 19,000  Level Chicago Center
05:21PM 42.8167 -85.9264 96° East 249 287 19,000  Level Chicago Center
05:22PM 42.8089 -85.8328 96° East 251 289 19,000  Level Chicago Center
05:24PM 42.8017 -85.7392 96° East 251 289 19,000  Level Chicago Center
05:25PM 42.7936 -85.6272 96° East 250 288 19,000  Level Chicago Center
05:26PM 42.7858 -85.5322 96° East 252 290 19,000  Level Chicago Center
05:27PM 42.7783 -85.4381 96° East 252 290 19,000  Level Chicago Center
05:28PM 42.7708 -85.3439 96° East 252 290 19,000  Level Chicago Center
05:29PM 42.7644 -85.2508 95° East 250 288 19,000  Level Chicago Center
05:30PM 42.7547 -85.1378 97° East 251 289 19,000  Level Chicago Center
05:31PM 42.7469 -85.0439 96° East 250 288 19,000  Level Chicago Center
05:32PM 42.7389 -84.9500 97° East 250 288 19,000 -60 Level Chicago Center
05:33PM 42.7314 -84.8550 96° East 253 291 18,900 -540 Descending Chicago Center
05:34PM 42.7236 -84.7606 96° East 252 290 18,000 -840 Descending Chicago Center
05:35PM 42.7153 -84.6700 97° East 244 281 17,200 -1,200 Descending Chicago Center
05:36PM 42.7136 -84.5664 91° East 229 264 15,600 -1,440 Descending Chicago Center
05:37PM 42.7108 -84.4861 93° East 216 249 14,300 -1,260 Descending Chicago Center
05:38PM 42.7119 -84.4092 89° East 207 238 13,000 -1,320 Descending Chicago Center
05:39PM 42.7139 -84.3333 88° East 206 237 11,600 -1,440 Descending Cleveland Center
05:40PM 42.7119 -84.2625 92° East 213 245 10,400 -1,440 Descending Cleveland Center
05:41PM 42.7119 -84.1947 90° East 217 250 9,300 -1,260 Descending Cleveland Center
05:42PM 42.7081 -84.1211 94° East 202 232 8,100 -960 Descending Cleveland Center
05:43PM 42.7086 -84.0333 89° East 184 212 7,200 -900 Descending Cleveland Center
05:44PM 42.6917 -83.9731 111° Southeast 194 223 6,300 -960 Descending Cleveland Center
05:45PM 42.6625 -83.9039 120° Southeast 193 222 5,300 -780 Descending Cleveland Center
05:46PM 42.6458 -83.8294 107° East 178 205 4,600 -720 Descending Cleveland Center
05:47PM 42.6453 -83.7731 91° East 175 201 4,000 -540 Descending Cleveland Center
05:48PM 42.6453 -83.6997 90° East 181 208 3,600 -480 Descending Cleveland Center
05:49PM 42.6450 -83.6319 90° East 187 215 3,000 -360 Descending Cleveland Center
05:50PM 42.6467 -83.5669 88° East 177 204 3,000 -360 Level Cleveland Center
05:51PM 42.6522 -83.5136 82° East 123 142 2,300 -720 Descending Cleveland Center
05:52PM 42.6636 -83.4775 67° East 86 99 1,600 -720 Descending Cleveland Center